sensor_id;sensor_type;location;lat;lon;timestamp;pressure;altitude;pressure_sealevel;temperature;humidity
76815;BME280;65768;49.906;19.384;2023-07-24T00:01:18;97642.81;;;25.54;38.52
76815;BME280;65768;49.906;19.384;2023-07-24T00:03:46;97641.40;;;25.61;38.60
76815;BME280;65768;49.906;19.384;2023-07-24T00:06:14;97640.42;;;25.52;38.88
76815;BME280;65768;49.906;19.384;2023-07-24T00:08:42;97634.69;;;25.53;38.91
76815;BME280;65768;49.906;19.384;2023-07-24T00:11:10;97639.15;;;25.47;39.11
76815;BME280;65768;49.906;19.384;2023-07-24T00:13:38;97642.48;;;25.46;39.26
76815;BME280;65768;49.906;19.384;2023-07-24T00:16:10;97637.52;;;25.35;39.73
76815;BME280;65768;49.906;19.384;2023-07-24T00:18:38;97639.18;;;25.44;39.42
76815;BME280;65768;49.906;19.384;2023-07-24T00:21:06;97638.52;;;25.41;40.03
76815;BME280;65768;49.906;19.384;2023-07-24T00:23:34;97641.11;;;25.53;39.50
76815;BME280;65768;49.906;19.384;2023-07-24T00:26:03;97636.23;;;25.51;39.72
76815;BME280;65768;49.906;19.384;2023-07-24T00:28:32;97633.45;;;25.34;40.24
76815;BME280;65768;49.906;19.384;2023-07-24T00:31:00;97636.27;;;25.40;40.18
76815;BME280;65768;49.906;19.384;2023-07-24T00:33:28;97638.41;;;25.40;39.93
76815;BME280;65768;49.906;19.384;2023-07-24T00:35:57;97637.09;;;25.44;40.01
76815;BME280;65768;49.906;19.384;2023-07-24T00:38:25;97631.91;;;25.41;40.33
76815;BME280;65768;49.906;19.384;2023-07-24T00:40:53;97629.73;;;25.42;40.41
76815;BME280;65768;49.906;19.384;2023-07-24T00:43:21;97636.67;;;25.37;40.74
76815;BME280;65768;49.906;19.384;2023-07-24T00:45:49;97638.22;;;25.51;40.44
76815;BME280;65768;49.906;19.384;2023-07-24T00:48:18;97633.16;;;25.46;40.79
76815;BME280;65768;49.906;19.384;2023-07-24T00:50:46;97632.66;;;25.38;40.91
76815;BME280;65768;49.906;19.384;2023-07-24T00:53:15;97633.50;;;25.47;41.11
76815;BME280;65768;49.906;19.384;2023-07-24T00:55:44;97632.78;;;25.42;41.26
76815;BME280;65768;49.906;19.384;2023-07-24T00:58:13;97637.60;;;25.54;41.06
76815;BME280;65768;49.906;19.384;2023-07-24T01:00:43;97633.14;;;25.52;41.43
76815;BME280;65768;49.906;19.384;2023-07-24T01:03:11;97630.08;;;25.50;41.43
76815;BME280;65768;49.906;19.384;2023-07-24T01:05:40;97636.58;;;25.48;41.63
76815;BME280;65768;49.906;19.384;2023-07-24T01:08:08;97634.75;;;25.44;41.89
76815;BME280;65768;49.906;19.384;2023-07-24T01:10:37;97635.05;;;25.55;41.63
76815;BME280;65768;49.906;19.384;2023-07-24T01:13:22;97631.89;;;25.46;41.69
76815;BME280;65768;49.906;19.384;2023-07-24T01:15:56;97629.87;;;25.58;41.46
76815;BME280;65768;49.906;19.384;2023-07-24T01:18:28;97622.85;;;25.43;41.98
76815;BME280;65768;49.906;19.384;2023-07-24T01:20:59;97619.02;;;25.49;42.12
76815;BME280;65768;49.906;19.384;2023-07-24T01:26:16;97622.80;;;25.54;42.18
76815;BME280;65768;49.906;19.384;2023-07-24T01:28:44;97626.29;;;25.58;42.20
76815;BME280;65768;49.906;19.384;2023-07-24T01:31:13;97628.59;;;25.58;42.12
76815;BME280;65768;49.906;19.384;2023-07-24T01:33:42;97623.41;;;25.50;42.57
76815;BME280;65768;49.906;19.384;2023-07-24T01:36:10;97621.63;;;25.51;42.77
76815;BME280;65768;49.906;19.384;2023-07-24T01:38:39;97626.48;;;25.53;42.98
76815;BME280;65768;49.906;19.384;2023-07-24T01:41:08;97631.29;;;25.55;42.72
76815;BME280;65768;49.906;19.384;2023-07-24T01:43:36;97630.64;;;25.60;42.87
76815;BME280;65768;49.906;19.384;2023-07-24T01:46:04;97630.39;;;25.58;42.99
76815;BME280;65768;49.906;19.384;2023-07-24T01:48:32;97630.44;;;25.55;43.09
76815;BME280;65768;49.906;19.384;2023-07-24T01:51:00;97629.52;;;25.60;43.21
76815;BME280;65768;49.906;19.384;2023-07-24T01:53:28;97623.55;;;25.59;43.46
76815;BME280;65768;49.906;19.384;2023-07-24T01:55:58;97623.31;;;25.54;43.80
76815;BME280;65768;49.906;19.384;2023-07-24T01:58:26;97623.23;;;25.63;43.94
76815;BME280;65768;49.906;19.384;2023-07-24T02:00:57;97619.08;;;25.67;44.11
76815;BME280;65768;49.906;19.384;2023-07-24T02:03:25;97618.53;;;25.72;44.04
76815;BME280;65768;49.906;19.384;2023-07-24T02:05:53;97616.52;;;25.75;44.51
76815;BME280;65768;49.906;19.384;2023-07-24T02:08:21;97614.82;;;25.74;44.49
76815;BME280;65768;49.906;19.384;2023-07-24T02:10:50;97616.91;;;25.77;44.58
76815;BME280;65768;49.906;19.384;2023-07-24T02:13:18;97617.80;;;25.72;44.91
76815;BME280;65768;49.906;19.384;2023-07-24T02:15:46;97618.52;;;25.70;45.06
76815;BME280;65768;49.906;19.384;2023-07-24T02:18:14;97615.80;;;25.73;44.86
76815;BME280;65768;49.906;19.384;2023-07-24T02:20:49;97615.38;;;25.66;45.36
76815;BME280;65768;49.906;19.384;2023-07-24T02:23:17;97618.91;;;25.66;45.65
76815;BME280;65768;49.906;19.384;2023-07-24T02:25:45;97613.94;;;25.69;45.56
76815;BME280;65768;49.906;19.384;2023-07-24T02:28:13;97609.77;;;25.70;45.64
76815;BME280;65768;49.906;19.384;2023-07-24T02:30:41;97612.88;;;25.66;46.02
76815;BME280;65768;49.906;19.384;2023-07-24T02:33:09;97603.45;;;25.60;46.20
76815;BME280;65768;49.906;19.384;2023-07-24T02:35:41;97604.70;;;25.55;46.54
76815;BME280;65768;49.906;19.384;2023-07-24T02:38:09;97609.75;;;25.52;46.62
76815;BME280;65768;49.906;19.384;2023-07-24T02:40:41;97614.27;;;25.46;46.72
76815;BME280;65768;49.906;19.384;2023-07-24T02:43:09;97606.38;;;25.41;46.89
76815;BME280;65768;49.906;19.384;2023-07-24T02:45:37;97608.44;;;25.30;47.67
76815;BME280;65768;49.906;19.384;2023-07-24T02:48:05;97609.48;;;25.30;47.57
76815;BME280;65768;49.906;19.384;2023-07-24T02:50:34;97609.15;;;25.25;47.75
76815;BME280;65768;49.906;19.384;2023-07-24T02:53:02;97613.91;;;25.20;48.00
76815;BME280;65768;49.906;19.384;2023-07-24T02:55:30;97615.31;;;25.18;47.94
76815;BME280;65768;49.906;19.384;2023-07-24T02:57:58;97611.11;;;25.17;47.95
76815;BME280;65768;49.906;19.384;2023-07-24T03:00:26;97609.10;;;25.14;47.99
76815;BME280;65768;49.906;19.384;2023-07-24T03:02:54;97609.25;;;25.05;48.44
76815;BME280;65768;49.906;19.384;2023-07-24T03:05:23;97610.70;;;24.99;48.73
76815;BME280;65768;49.906;19.384;2023-07-24T03:07:51;97609.77;;;24.94;49.16
76815;BME280;65768;49.906;19.384;2023-07-24T03:10:19;97609.70;;;24.90;49.11
76815;BME280;65768;49.906;19.384;2023-07-24T03:12:47;97605.17;;;24.83;49.73
76815;BME280;65768;49.906;19.384;2023-07-24T03:15:16;97610.48;;;24.76;50.19
76815;BME280;65768;49.906;19.384;2023-07-24T03:17:44;97607.11;;;24.75;50.19
76815;BME280;65768;49.906;19.384;2023-07-24T03:20:16;97604.20;;;24.74;50.42
76815;BME280;65768;49.906;19.384;2023-07-24T03:22:45;97601.31;;;24.74;50.49
76815;BME280;65768;49.906;19.384;2023-07-24T03:25:13;97602.89;;;24.74;50.62
76815;BME280;65768;49.906;19.384;2023-07-24T03:27:41;97603.67;;;24.76;50.89
76815;BME280;65768;49.906;19.384;2023-07-24T03:30:10;97606.77;;;24.72;50.92
76815;BME280;65768;49.906;19.384;2023-07-24T03:32:38;97609.77;;;24.62;51.74
76815;BME280;65768;49.906;19.384;2023-07-24T03:35:06;97613.58;;;24.61;51.94
76815;BME280;65768;49.906;19.384;2023-07-24T03:37:35;97611.86;;;24.60;52.05
76815;BME280;65768;49.906;19.384;2023-07-24T03:40:06;97611.66;;;24.63;52.29
76815;BME280;65768;49.906;19.384;2023-07-24T03:42:35;97608.89;;;24.59;52.83
76815;BME280;65768;49.906;19.384;2023-07-24T03:45:03;97608.98;;;24.63;52.74
76815;BME280;65768;49.906;19.384;2023-07-24T03:47:32;97608.98;;;24.66;52.88
76815;BME280;65768;49.906;19.384;2023-07-24T03:50:00;97607.64;;;24.65;53.46
76815;BME280;65768;49.906;19.384;2023-07-24T03:52:28;97609.53;;;24.68;53.11
76815;BME280;65768;49.906;19.384;2023-07-24T03:54:56;97610.75;;;24.69;53.18
76815;BME280;65768;49.906;19.384;2023-07-24T03:57:24;97612.91;;;24.68;53.37
76815;BME280;65768;49.906;19.384;2023-07-24T03:59:52;97610.45;;;24.73;53.32
76815;BME280;65768;49.906;19.384;2023-07-24T04:02:21;97608.36;;;24.76;53.45
76815;BME280;65768;49.906;19.384;2023-07-24T04:04:49;97613.05;;;24.78;53.72
76815;BME280;65768;49.906;19.384;2023-07-24T04:07:17;97615.94;;;24.79;53.65
76815;BME280;65768;49.906;19.384;2023-07-24T04:09:45;97614.11;;;24.85;53.91
76815;BME280;65768;49.906;19.384;2023-07-24T04:12:13;97616.57;;;24.94;53.58
76815;BME280;65768;49.906;19.384;2023-07-24T04:14:41;97621.08;;;24.98;53.44
76815;BME280;65768;49.906;19.384;2023-07-24T04:17:09;97623.30;;;25.05;53.53
76815;BME280;65768;49.906;19.384;2023-07-24T04:19:37;97618.58;;;25.06;54.01
76815;BME280;65768;49.906;19.384;2023-07-24T04:22:05;97615.27;;;25.16;53.69
76815;BME280;65768;49.906;19.384;2023-07-24T04:24:33;97616.59;;;25.23;53.92
76815;BME280;65768;49.906;19.384;2023-07-24T04:27:01;97612.02;;;25.35;53.45
76815;BME280;65768;49.906;19.384;2023-07-24T04:29:29;97609.33;;;25.45;53.30
76815;BME280;65768;49.906;19.384;2023-07-24T04:31:57;97610.30;;;25.57;52.98
76815;BME280;65768;49.906;19.384;2023-07-24T04:34:26;97613.86;;;25.62;53.22
76815;BME280;65768;49.906;19.384;2023-07-24T04:36:54;97612.10;;;25.70;53.03
76815;BME280;65768;49.906;19.384;2023-07-24T04:39:22;97610.40;;;25.81;52.58
76815;BME280;65768;49.906;19.384;2023-07-24T04:41:50;97613.22;;;25.87;52.84
76815;BME280;65768;49.906;19.384;2023-07-24T04:44:18;97612.60;;;25.90;52.73
76815;BME280;65768;49.906;19.384;2023-07-24T04:46:46;97615.35;;;25.97;52.44
76815;BME280;65768;49.906;19.384;2023-07-24T04:49:14;97616.61;;;26.04;52.58
76815;BME280;65768;49.906;19.384;2023-07-24T04:51:42;97613.59;;;26.06;52.45
76815;BME280;65768;49.906;19.384;2023-07-24T04:54:10;97614.54;;;26.21;52.11
76815;BME280;65768;49.906;19.384;2023-07-24T04:56:38;97616.28;;;26.33;51.51
76815;BME280;65768;49.906;19.384;2023-07-24T04:59:06;97620.45;;;26.37;51.69
76815;BME280;65768;49.906;19.384;2023-07-24T05:01:34;97615.88;;;26.51;51.24
76815;BME280;65768;49.906;19.384;2023-07-24T05:04:02;97619.08;;;26.61;51.59
76815;BME280;65768;49.906;19.384;2023-07-24T05:06:30;97617.49;;;26.56;51.48
76815;BME280;65768;49.906;19.384;2023-07-24T05:08:58;97616.76;;;26.56;51.51
76815;BME280;65768;49.906;19.384;2023-07-24T05:11:26;97621.79;;;26.41;51.53
76815;BME280;65768;49.906;19.384;2023-07-24T05:13:54;97617.63;;;26.61;51.32
76815;BME280;65768;49.906;19.384;2023-07-24T05:16:22;97621.70;;;26.64;50.81
76815;BME280;65768;49.906;19.384;2023-07-24T05:18:50;97623.20;;;26.75;50.81
76815;BME280;65768;49.906;19.384;2023-07-24T05:21:19;97621.24;;;26.73;50.77
76815;BME280;65768;49.906;19.384;2023-07-24T05:23:47;97620.85;;;26.90;50.70
76815;BME280;65768;49.906;19.384;2023-07-24T05:26:15;97619.64;;;26.94;50.03
76815;BME280;65768;49.906;19.384;2023-07-24T05:28:43;97621.33;;;27.00;49.79
76815;BME280;65768;49.906;19.384;2023-07-24T05:31:11;97620.05;;;27.03;49.62
76815;BME280;65768;49.906;19.384;2023-07-24T05:33:39;97620.16;;;27.32;49.47
76815;BME280;65768;49.906;19.384;2023-07-24T05:36:07;97622.48;;;27.53;49.25
76815;BME280;65768;49.906;19.384;2023-07-24T05:38:36;97621.02;;;27.67;48.63
76815;BME280;65768;49.906;19.384;2023-07-24T05:41:04;97622.45;;;27.67;48.13
76815;BME280;65768;49.906;19.384;2023-07-24T05:43:33;97622.00;;;27.82;48.66
76815;BME280;65768;49.906;19.384;2023-07-24T05:46:02;97622.62;;;27.85;47.87
76815;BME280;65768;49.906;19.384;2023-07-24T05:48:30;97624.31;;;28.16;47.49
76815;BME280;65768;49.906;19.384;2023-07-24T05:50:58;97621.45;;;28.25;46.82
76815;BME280;65768;49.906;19.384;2023-07-24T05:53:26;97618.67;;;28.35;46.47
76815;BME280;65768;49.906;19.384;2023-07-24T05:56:01;97623.78;;;28.56;46.34
76815;BME280;65768;49.906;19.384;2023-07-24T05:58:30;97617.52;;;28.67;45.39
76815;BME280;65768;49.906;19.384;2023-07-24T06:00:58;97616.13;;;28.85;44.73
76815;BME280;65768;49.906;19.384;2023-07-24T06:03:27;97614.73;;;28.89;44.83
76815;BME280;65768;49.906;19.384;2023-07-24T06:05:55;97619.26;;;28.67;44.77
76815;BME280;65768;49.906;19.384;2023-07-24T06:08:24;97625.94;;;28.95;44.19
76815;BME280;65768;49.906;19.384;2023-07-24T06:10:52;97626.83;;;29.20;42.96
76815;BME280;65768;49.906;19.384;2023-07-24T06:13:20;97630.39;;;29.34;43.04
76815;BME280;65768;49.906;19.384;2023-07-24T06:15:49;97631.92;;;29.34;42.91
76815;BME280;65768;49.906;19.384;2023-07-24T06:18:18;97632.05;;;28.97;42.42
76815;BME280;65768;49.906;19.384;2023-07-24T06:20:47;97634.18;;;29.10;41.85
76815;BME280;65768;49.906;19.384;2023-07-24T06:23:15;97633.96;;;28.87;41.79
76815;BME280;65768;49.906;19.384;2023-07-24T06:25:43;97634.90;;;28.69;42.13
76815;BME280;65768;49.906;19.384;2023-07-24T06:28:11;97627.89;;;28.71;42.18
76815;BME280;65768;49.906;19.384;2023-07-24T06:30:40;97625.67;;;28.83;42.53
76815;BME280;65768;49.906;19.384;2023-07-24T06:33:08;97626.27;;;29.10;42.10
76815;BME280;65768;49.906;19.384;2023-07-24T06:35:36;97620.94;;;28.94;42.13
76815;BME280;65768;49.906;19.384;2023-07-24T06:38:05;97629.09;;;28.61;42.57
76815;BME280;65768;49.906;19.384;2023-07-24T06:40:36;97624.96;;;29.06;42.10
76815;BME280;65768;49.906;19.384;2023-07-24T06:43:04;97627.13;;;29.08;41.63
76815;BME280;65768;49.906;19.384;2023-07-24T06:45:32;97624.98;;;29.44;40.16
76815;BME280;65768;49.906;19.384;2023-07-24T06:48:00;97630.47;;;29.54;40.18
76815;BME280;65768;49.906;19.384;2023-07-24T06:50:29;97627.00;;;29.93;41.02
76815;BME280;65768;49.906;19.384;2023-07-24T06:52:57;97629.39;;;29.95;39.95
76815;BME280;65768;49.906;19.384;2023-07-24T06:55:25;97626.56;;;30.01;40.14
76815;BME280;65768;49.906;19.384;2023-07-24T06:57:54;97627.51;;;29.84;41.32
76815;BME280;65768;49.906;19.384;2023-07-24T07:00:22;97629.68;;;29.18;40.36
76815;BME280;65768;49.906;19.384;2023-07-24T07:02:51;97625.47;;;29.21;40.57
76815;BME280;65768;49.906;19.384;2023-07-24T07:05:19;97618.09;;;29.22;40.41
76815;BME280;65768;49.906;19.384;2023-07-24T07:07:47;97615.12;;;29.50;38.89
76815;BME280;65768;49.906;19.384;2023-07-24T07:10:17;97612.75;;;29.86;39.28
76815;BME280;65768;49.906;19.384;2023-07-24T07:12:45;97616.20;;;30.02;38.24
76815;BME280;65768;49.906;19.384;2023-07-24T07:15:14;97615.42;;;30.23;38.35
76815;BME280;65768;49.906;19.384;2023-07-24T07:17:42;97608.90;;;30.71;37.63
76815;BME280;65768;49.906;19.384;2023-07-24T07:20:11;97608.89;;;30.79;37.52
76815;BME280;65768;49.906;19.384;2023-07-24T07:22:39;97608.36;;;30.93;37.23
76815;BME280;65768;49.906;19.384;2023-07-24T07:25:07;97603.55;;;30.68;35.92
76815;BME280;65768;49.906;19.384;2023-07-24T07:27:36;97601.00;;;30.79;35.95
76815;BME280;65768;49.906;19.384;2023-07-24T07:30:05;97598.48;;;30.99;35.51
76815;BME280;65768;49.906;19.384;2023-07-24T07:32:34;97596.70;;;30.98;35.73
76815;BME280;65768;49.906;19.384;2023-07-24T07:35:03;97589.17;;;31.13;35.42
76815;BME280;65768;49.906;19.384;2023-07-24T07:37:31;97596.57;;;31.09;35.09
76815;BME280;65768;49.906;19.384;2023-07-24T07:39:59;97598.51;;;31.44;35.80
76815;BME280;65768;49.906;19.384;2023-07-24T07:42:27;97600.33;;;31.56;35.84
76815;BME280;65768;49.906;19.384;2023-07-24T07:44:56;97600.98;;;32.03;35.18
76815;BME280;65768;49.906;19.384;2023-07-24T07:47:24;97598.16;;;31.88;34.56
76815;BME280;65768;49.906;19.384;2023-07-24T07:49:53;97595.49;;;31.67;35.13
76815;BME280;65768;49.906;19.384;2023-07-24T07:52:21;97592.04;;;32.10;35.24
76815;BME280;65768;49.906;19.384;2023-07-24T07:54:50;97587.71;;;32.15;34.87
76815;BME280;65768;49.906;19.384;2023-07-24T07:57:18;97589.16;;;32.59;33.89
76815;BME280;65768;49.906;19.384;2023-07-24T07:59:46;97587.83;;;33.03;33.88
76815;BME280;65768;49.906;19.384;2023-07-24T08:02:14;97580.23;;;32.85;33.97
76815;BME280;65768;49.906;19.384;2023-07-24T08:04:43;97578.91;;;32.54;34.12
76815;BME280;65768;49.906;19.384;2023-07-24T08:07:13;97582.20;;;32.24;33.91
76815;BME280;65768;49.906;19.384;2023-07-24T08:09:41;97582.54;;;31.93;34.88
76815;BME280;65768;49.906;19.384;2023-07-24T08:12:09;97582.69;;;31.65;36.06
76815;BME280;65768;49.906;19.384;2023-07-24T08:14:38;97590.91;;;31.54;36.43
76815;BME280;65768;49.906;19.384;2023-07-24T08:17:06;97591.46;;;31.27;36.36
76815;BME280;65768;49.906;19.384;2023-07-24T08:19:34;97578.15;;;30.85;36.83
76815;BME280;65768;49.906;19.384;2023-07-24T08:22:03;97572.48;;;30.72;36.77
76815;BME280;65768;49.906;19.384;2023-07-24T08:24:36;97574.92;;;30.89;36.94
76815;BME280;65768;49.906;19.384;2023-07-24T08:27:05;97566.19;;;30.64;35.12
76815;BME280;65768;49.906;19.384;2023-07-24T08:29:33;97549.91;;;31.33;34.73
76815;BME280;65768;49.906;19.384;2023-07-24T08:32:04;97548.80;;;31.63;34.14
76815;BME280;65768;49.906;19.384;2023-07-24T08:34:33;97550.15;;;31.87;33.36
76815;BME280;65768;49.906;19.384;2023-07-24T08:37:01;97556.84;;;31.60;33.97
76815;BME280;65768;49.906;19.384;2023-07-24T08:39:31;97570.07;;;30.82;34.94
76815;BME280;65768;49.906;19.384;2023-07-24T08:41:59;97574.88;;;30.83;34.35
76815;BME280;65768;49.906;19.384;2023-07-24T08:44:28;97573.76;;;31.53;34.38
76815;BME280;65768;49.906;19.384;2023-07-24T08:46:59;97569.66;;;32.10;32.32
76815;BME280;65768;49.906;19.384;2023-07-24T08:49:29;97564.05;;;32.20;31.60
76815;BME280;65768;49.906;19.384;2023-07-24T08:51:59;97564.60;;;32.38;32.73
76815;BME280;65768;49.906;19.384;2023-07-24T08:54:30;97560.30;;;32.63;30.78
76815;BME280;65768;49.906;19.384;2023-07-24T08:56:59;97569.23;;;32.53;30.38
76815;BME280;65768;49.906;19.384;2023-07-24T08:59:28;97563.11;;;32.73;30.45
76815;BME280;65768;49.906;19.384;2023-07-24T09:01:57;97557.80;;;33.06;30.35
76815;BME280;65768;49.906;19.384;2023-07-24T09:04:26;97545.05;;;33.29;29.81
76815;BME280;65768;49.906;19.384;2023-07-24T09:06:57;97543.23;;;34.13;29.73
76815;BME280;65768;49.906;19.384;2023-07-24T09:09:29;97548.96;;;34.01;29.19
76815;BME280;65768;49.906;19.384;2023-07-24T09:11:59;97548.52;;;33.35;29.23
76815;BME280;65768;49.906;19.384;2023-07-24T09:14:28;97547.00;;;33.16;29.43
76815;BME280;65768;49.906;19.384;2023-07-24T09:17:05;97532.04;;;33.20;29.82
76815;BME280;65768;49.906;19.384;2023-07-24T09:19:34;97535.16;;;33.98;29.59
76815;BME280;65768;49.906;19.384;2023-07-24T09:22:10;97536.62;;;33.93;28.54
76815;BME280;65768;49.906;19.384;2023-07-24T09:24:51;97535.90;;;33.98;27.46
76815;BME280;65768;49.906;19.384;2023-07-24T09:27:23;97543.52;;;33.96;27.79
76815;BME280;65768;49.906;19.384;2023-07-24T09:29:52;97543.64;;;32.58;28.18
76815;BME280;65768;49.906;19.384;2023-07-24T09:32:22;97543.61;;;32.76;28.26
76815;BME280;65768;49.906;19.384;2023-07-24T09:34:51;97539.51;;;32.83;28.12
76815;BME280;65768;49.906;19.384;2023-07-24T09:37:30;97537.36;;;32.05;29.14
76815;BME280;65768;49.906;19.384;2023-07-24T09:39:59;97533.13;;;31.78;30.04
76815;BME280;65768;49.906;19.384;2023-07-24T09:42:31;97531.44;;;31.86;29.67
76815;BME280;65768;49.906;19.384;2023-07-24T09:45:04;97529.63;;;32.05;28.86
76815;BME280;65768;49.906;19.384;2023-07-24T09:47:32;97512.25;;;31.52;29.71
76815;BME280;65768;49.906;19.384;2023-07-24T09:50:04;97494.16;;;31.87;29.41
76815;BME280;65768;49.906;19.384;2023-07-24T09:52:32;97496.26;;;31.82;29.27
76815;BME280;65768;49.906;19.384;2023-07-24T09:55:10;97488.12;;;31.21;28.72
76815;BME280;65768;49.906;19.384;2023-07-24T09:57:39;97478.23;;;31.62;29.21
76815;BME280;65768;49.906;19.384;2023-07-24T10:00:08;97467.36;;;31.94;28.94
76815;BME280;65768;49.906;19.384;2023-07-24T10:02:37;97464.40;;;32.17;29.35
76815;BME280;65768;49.906;19.384;2023-07-24T10:05:06;97460.39;;;32.44;29.21
76815;BME280;65768;49.906;19.384;2023-07-24T10:07:35;97456.42;;;32.62;29.96
76815;BME280;65768;49.906;19.384;2023-07-24T10:10:05;97459.92;;;32.41;29.26
76815;BME280;65768;49.906;19.384;2023-07-24T10:12:34;97462.48;;;32.27;29.98
76815;BME280;65768;49.906;19.384;2023-07-24T10:15:05;97475.97;;;31.83;31.05
76815;BME280;65768;49.906;19.384;2023-07-24T10:17:37;97471.66;;;31.43;30.84
76815;BME280;65768;49.906;19.384;2023-07-24T10:20:09;97459.91;;;31.33;30.55
76815;BME280;65768;49.906;19.384;2023-07-24T10:22:41;97463.71;;;31.14;30.73
76815;BME280;65768;49.906;19.384;2023-07-24T10:25:10;97469.50;;;30.95;31.39
76815;BME280;65768;49.906;19.384;2023-07-24T10:27:42;97469.63;;;31.02;31.68
76815;BME280;65768;49.906;19.384;2023-07-24T10:30:12;97449.81;;;31.06;31.05
76815;BME280;65768;49.906;19.384;2023-07-24T10:32:47;97437.98;;;31.09;31.91
76815;BME280;65768;49.906;19.384;2023-07-24T10:35:17;97432.20;;;31.12;31.81
76815;BME280;65768;49.906;19.384;2023-07-24T10:37:58;97447.47;;;31.07;32.42
76815;BME280;65768;49.906;19.384;2023-07-24T10:40:27;97444.16;;;30.91;31.74
76815;BME280;65768;49.906;19.384;2023-07-24T10:43:13;97446.16;;;30.99;30.49
76815;BME280;65768;49.906;19.384;2023-07-24T10:45:42;97450.64;;;31.01;30.93
76815;BME280;65768;49.906;19.384;2023-07-24T10:48:10;97447.52;;;31.07;30.21
76815;BME280;65768;49.906;19.384;2023-07-24T10:50:41;97450.65;;;31.10;30.28
76815;BME280;65768;49.906;19.384;2023-07-24T10:53:12;97452.64;;;31.27;29.72
76815;BME280;65768;49.906;19.384;2023-07-24T10:55:44;97460.37;;;31.48;29.60
76815;BME280;65768;49.906;19.384;2023-07-24T10:58:14;97459.69;;;31.93;29.52
76815;BME280;65768;49.906;19.384;2023-07-24T11:00:43;97452.43;;;32.80;27.99
76815;BME280;65768;49.906;19.384;2023-07-24T11:03:13;97445.83;;;33.67;27.30
76815;BME280;65768;49.906;19.384;2023-07-24T11:05:42;97447.77;;;34.13;26.89
76815;BME280;65768;49.906;19.384;2023-07-24T11:08:19;97452.08;;;33.60;27.43
76815;BME280;65768;49.906;19.384;2023-07-24T11:10:52;97450.13;;;33.47;28.99
76815;BME280;65768;49.906;19.384;2023-07-24T11:13:25;97450.38;;;33.29;28.24
76815;BME280;65768;49.906;19.384;2023-07-24T11:15:54;97440.86;;;33.49;30.76
76815;BME280;65768;49.906;19.384;2023-07-24T11:18:23;97439.98;;;33.44;28.08
76815;BME280;65768;49.906;19.384;2023-07-24T11:20:55;97437.98;;;33.49;29.50
76815;BME280;65768;49.906;19.384;2023-07-24T11:23:24;97437.22;;;33.52;28.57
76815;BME280;65768;49.906;19.384;2023-07-24T11:25:53;97433.71;;;33.72;28.92
76815;BME280;65768;49.906;19.384;2023-07-24T11:28:22;97432.84;;;33.82;29.83
76815;BME280;65768;49.906;19.384;2023-07-24T11:30:50;97428.25;;;33.68;28.27
76815;BME280;65768;49.906;19.384;2023-07-24T11:33:20;97419.96;;;33.98;28.00
76815;BME280;65768;49.906;19.384;2023-07-24T11:35:49;97412.14;;;33.81;27.14
76815;BME280;65768;49.906;19.384;2023-07-24T11:38:17;97408.86;;;33.71;27.42
76815;BME280;65768;49.906;19.384;2023-07-24T11:40:46;97406.16;;;33.75;27.31
76815;BME280;65768;49.906;19.384;2023-07-24T11:43:19;97399.27;;;33.94;26.48
76815;BME280;65768;49.906;19.384;2023-07-24T11:45:49;97395.42;;;34.12;27.70
76815;BME280;65768;49.906;19.384;2023-07-24T11:48:23;97388.80;;;34.22;27.20
76815;BME280;65768;49.906;19.384;2023-07-24T11:50:53;97383.70;;;34.27;27.77
76815;BME280;65768;49.906;19.384;2023-07-24T11:53:30;97378.90;;;34.33;27.64
76815;BME280;65768;49.906;19.384;2023-07-24T11:56:00;97378.34;;;34.62;28.88
76815;BME280;65768;49.906;19.384;2023-07-24T11:58:30;97375.70;;;34.68;27.95
76815;BME280;65768;49.906;19.384;2023-07-24T12:00:58;97373.00;;;34.33;27.04
76815;BME280;65768;49.906;19.384;2023-07-24T12:03:28;97372.33;;;34.35;27.39
76815;BME280;65768;49.906;19.384;2023-07-24T12:05:56;97365.60;;;34.33;28.29
76815;BME280;65768;49.906;19.384;2023-07-24T12:08:34;97356.27;;;34.34;29.45
76815;BME280;65768;49.906;19.384;2023-07-24T12:11:03;97352.44;;;34.36;26.78
76815;BME280;65768;49.906;19.384;2023-07-24T12:13:31;97343.75;;;34.31;28.97
76815;BME280;65768;49.906;19.384;2023-07-24T12:16:00;97342.17;;;34.27;32.46
76815;BME280;65768;49.906;19.384;2023-07-24T12:18:28;97339.66;;;34.29;29.85
76815;BME280;65768;49.906;19.384;2023-07-24T12:20:57;97341.75;;;34.18;29.40
76815;BME280;65768;49.906;19.384;2023-07-24T12:23:25;97336.75;;;34.41;30.85
76815;BME280;65768;49.906;19.384;2023-07-24T12:25:54;97331.86;;;34.92;30.07
76815;BME280;65768;49.906;19.384;2023-07-24T12:28:22;97325.52;;;35.52;28.89
76815;BME280;65768;49.906;19.384;2023-07-24T12:30:50;97324.70;;;35.98;27.60
76815;BME280;65768;49.906;19.384;2023-07-24T12:33:19;97314.73;;;35.59;26.58
76815;BME280;65768;49.906;19.384;2023-07-24T12:35:51;97307.48;;;35.83;26.03
76815;BME280;65768;49.906;19.384;2023-07-24T12:38:19;97298.72;;;36.23;26.26
76815;BME280;65768;49.906;19.384;2023-07-24T12:40:48;97295.74;;;36.42;25.91
76815;BME280;65768;49.906;19.384;2023-07-24T12:43:17;97292.25;;;36.57;25.56
76815;BME280;65768;49.906;19.384;2023-07-24T12:45:45;97292.13;;;36.52;25.02
76815;BME280;65768;49.906;19.384;2023-07-24T12:48:13;97284.71;;;36.73;24.44
76815;BME280;65768;49.906;19.384;2023-07-24T12:50:43;97286.59;;;36.27;24.30
76815;BME280;65768;49.906;19.384;2023-07-24T12:53:11;97277.96;;;35.62;23.79
76815;BME280;65768;49.906;19.384;2023-07-24T12:55:40;97265.04;;;35.78;24.69
76815;BME280;65768;49.906;19.384;2023-07-24T12:58:10;97255.75;;;36.30;24.53
76815;BME280;65768;49.906;19.384;2023-07-24T13:00:38;97245.54;;;36.63;23.95
76815;BME280;65768;49.906;19.384;2023-07-24T13:03:07;97241.13;;;37.24;24.46